Flora, Indiana
Current Conditions -  °F | °C
As of 9:15 AM on Monday 24 Nov 2014 (Local Time) from KGGP Reporting Station
Overcast Overcast  
Wind Chill: 32°   Ceiling: 800
Heat Index: 43°   Visibility: 10mi
Dew Point: 43°   Wind: 30mph
Humidity: 100%   Direction: 240°WSW
Pressure: 29.2"   Gusts: 44mph
Location:  40.55°N, 86.52°W
Report Text: KGGP 241415Z AUTO 24026G38KT 10SM OVC008 06/06 A2920 RMK AO2
Loading
Personal Weather Stations






























Interactive Weather Map New forecast layout! Learn more

10-Day Weather Forecast

Advertisements
Track Severe Weather on mobile